Latest Weather Observations for Bellambi

IDN60801

Issued at 7:15 pm EDT Monday 22 December 2014 (issued every 30 minutes, with the page automatically refreshed every 10 minutes)

About weather observations | Map of weather stations | Latest weather observations for NSW | Other Formats
Station Details ID: 068228 Name: BELLAMBI AWS Lat: -34.37 Lon: 150.93 Height: 10.0 m
Data from the previous 72 hours. | See also: Recent months at Bellambi
Date/Time
EDT
Temp
°C
App
Temp
°C
Dew
Point
Rel
Hum
%
Delta-T
°C
Wind Press
QNH
hPa
Press
MSL
hPa
Rain
since 9 am
mm
Dir
 
Spd
km/h
Gust
km/h
Spd
kts
Gust
kts
22/07:00pm 21.5 17.6 18.7 84 1.8 NE 37 43 20 23 - - 0.0
22/06:30pm 21.9 17.2 18.7 82 2.0 NE 41 46 22 25 - - 0.0
22/06:00pm 22.1 18.3 18.9 82 2.0 NE 37 43 20 23 - - 0.0
22/05:30pm 22.2 18.4 19.0 82 2.0 NE 37 43 20 23 - - 0.0
22/05:00pm 22.2 17.3 19.0 82 2.0 NE 43 50 23 27 - - 0.0
22/04:30pm 22.5 17.6 19.1 81 2.2 NE 43 50 23 27 - - 0.0
22/04:00pm 23.1 19.1 19.3 79 2.4 NE 39 46 21 25 - - 0.0
22/03:30pm 22.7 18.3 19.3 81 2.2 NE 41 46 22 25 - - 0.0
22/03:00pm 23.8 20.7 19.7 78 2.6 NE 35 44 19 24 - - 0.0
22/02:30pm 23.6 20.3 19.3 77 2.7 NE 35 43 19 23 - - 0.0
22/02:00pm 23.6 20.9 19.3 77 2.7 NE 32 37 17 20 - - 0.0
22/01:30pm 23.8 22.0 19.5 77 2.8 NE 28 35 15 19 - - 0.0
22/01:00pm 23.3 24.5 19.9 81 2.2 NNE 13 19 7 10 - - 0.0
22/12:30pm 22.4 22.8 19.0 81 2.2 N 15 19 8 10 - - 0.0
22/12:00pm 23.1 21.8 19.1 78 2.5 NNE 24 32 13 17 - - 0.0
22/11:30am 22.6 23.1 19.2 81 2.2 NNE 15 20 8 11 - - 0.0
22/11:00am 22.1 21.6 18.7 81 2.1 NNE 19 24 10 13 - - 0.0
22/10:30am 22.3 21.8 18.7 80 2.3 NNE 19 24 10 13 - - 0.0
22/10:00am 22.8 22.6 19.4 81 2.2 ENE 19 20 10 11 - - 0.0
22/09:30am 22.9 23.0 19.1 79 2.4 ENE 17 19 9 10 - - 0.0
22/09:00am 22.6 23.0 19.0 80 2.3 ENE 15 17 8 9 - - 0.0
22/08:30am 22.1 23.6 18.9 82 2.0 ENE 9 11 5 6 - - 0.0
22/08:00am 21.3 22.5 18.3 83 1.9 ENE 9 11 5 6 - - 0.0
22/07:30am 21.0 22.8 18.2 84 1.7 NNE 6 7 3 4 - - 0.0
22/07:00am 20.2 20.9 18.0 87 1.4 NNW 11 13 6 7 - - 0.0
22/06:30am 19.1 19.9 17.2 89 1.2 NW 9 11 5 6 - - 0.0
22/06:00am 18.8 19.8 16.8 88 1.2 NNW 7 9 4 5 - - 0.0
22/05:30am 19.1 21.5 17.1 88 1.2 CALM 0 0 0 0 - - 0.0
22/05:00am 19.6 20.5 17.6 88 1.2 N 9 9 5 5 - - 0.0
22/04:30am 19.2 20.8 17.0 87 1.3 NW 4 9 2 5 - - 0.0
22/04:00am 19.5 20.9 17.3 87 1.3 N 6 9 3 5 - - 0.0
22/03:30am 19.5 20.7 17.3 87 1.3 NW 7 9 4 5 - - 0.0
22/03:00am 19.4 20.5 17.0 86 1.5 NW 7 9 4 5 - - 0.0
22/02:30am 19.7 20.4 17.1 85 1.6 NW 9 13 5 7 - - 0.0
22/02:00am 19.8 20.5 17.0 84 1.7 WNW 9 9 5 5 - - 0.0
22/01:30am 20.7 21.4 17.9 84 1.7 N 11 15 6 8 - - 0.0
22/01:00am 20.8 20.3 17.8 83 1.9 NNE 17 20 9 11 - - 0.0
22/12:30am 21.0 20.2 18.0 83 1.9 NNE 19 24 10 13 - - 0.0
22/12:00am 20.8 20.4 18.0 84 1.7 NNE 17 22 9 12 - - 0.0
 
Date/Time
EDT
Temp
°C
App
Temp
°C
Dew
Point
Rel
Hum
%
Delta-T
°C
Wind Press
QNH
hPa
Press
MSL
hPa
Rain
since 9 am
mm
Dir
 
Spd
km/h
Gust
km/h
Spd
kts
Gust
kts
21/11:30pm 20.9 20.6 18.3 85 1.6 NNE 17 22 9 12 - - 0.0
21/11:00pm 20.7 20.8 18.3 86 1.5 NNE 15 20 8 11 - - 0.0
21/10:30pm 20.6 19.9 18.2 86 1.5 NNE 19 22 10 12 - - 0.0
21/10:00pm 20.6 19.8 18.0 85 1.6 NNE 19 20 10 11 - - 0.0
21/09:30pm 20.9 20.0 18.3 85 1.6 NNE 20 24 11 13 - - 0.0
21/09:00pm 20.9 19.6 18.1 84 1.7 NNE 22 28 12 15 - - 0.0
21/08:30pm 21.1 18.6 18.1 83 1.9 NNE 28 33 15 18 - - 0.0
21/08:00pm 21.3 17.9 18.1 82 2.0 NE 33 39 18 21 - - 0.0
21/07:30pm 21.4 18.2 18.2 82 2.0 NE 32 41 17 22 - - 0.0
21/07:00pm 21.8 18.0 18.0 79 2.4 NE 35 39 19 21 - - 0.0
21/06:30pm 22.0 18.7 18.0 78 2.5 NE 32 39 17 21 - - 0.0
21/06:00pm 22.3 19.1 18.1 77 2.6 NE 32 35 17 19 - - 0.0
21/05:30pm 22.6 19.4 18.2 76 2.8 NE 32 35 17 19 - - 0.0
21/05:00pm 22.8 19.6 18.1 75 2.9 NE 32 35 17 19 - - 0.0
21/04:30pm 23.0 19.8 18.1 74 3.1 NE 32 35 17 19 - - 0.0
21/04:00pm 23.1 19.6 18.0 73 3.2 NE 33 39 18 21 - - 0.0
21/03:30pm 23.2 19.2 17.6 71 3.5 NE 35 41 19 22 - - 0.0
21/03:00pm 23.4 20.0 18.1 72 3.3 NE 33 41 18 22 - - 0.0
21/02:30pm 23.2 19.2 17.6 71 3.5 NE 35 43 19 23 - - 0.0
21/02:00pm 23.4 19.3 18.3 73 3.2 NE 37 44 20 24 - - 0.0
21/01:30pm 23.5 20.0 17.9 71 3.5 NE 33 39 18 21 - - 0.0
21/01:00pm 23.2 19.7 17.4 70 3.6 NE 32 39 17 21 - - 0.0
21/12:30pm 23.2 19.8 17.6 71 3.5 NE 32 39 17 21 - - 0.0
21/12:00pm 23.1 19.5 17.3 70 3.6 NE 32 35 17 19 - - 0.0
21/11:30am 23.1 20.5 17.8 72 3.3 ENE 28 32 15 17 - - 0.0
21/11:00am 22.7 19.9 17.2 71 3.4 ENE 28 32 15 17 - - 0.0
21/10:30am 22.6 20.3 17.5 73 3.2 ENE 26 30 14 16 - - 0.0
21/10:00am 22.3 20.6 17.2 73 3.1 ENE 22 26 12 14 - - 0.0
21/09:30am 22.4 21.1 17.3 73 3.1 NE 20 22 11 12 - - 0.0
21/09:00am 22.1 20.7 16.6 71 3.3 NE 19 20 10 11 - - 1.0
21/08:30am 21.5 21.9 16.2 72 3.2 NE 9 13 5 7 - - 1.0
21/08:00am 20.5 20.2 15.5 73 3.0 N 11 13 6 7 - - 1.0
21/07:30am 19.5 19.8 15.0 75 2.6 NNE 7 9 4 5 - - 1.0
21/07:00am 18.6 19.1 15.1 80 2.0 N 6 9 3 5 - - 1.0
21/06:30am 17.5 18.2 14.4 82 1.8 NNW 4 7 2 4 - - 1.0
21/06:00am 16.8 18.0 13.7 82 1.8 CALM 0 6 0 3 - - 1.0
21/05:30am 16.3 15.9 13.0 81 1.8 NW 7 9 4 5 - - 1.0
21/05:00am 16.4 16.6 12.9 80 1.9 NW 4 9 2 5 - - 1.0
21/04:30am 16.8 16.4 13.1 79 2.1 NW 7 11 4 6 - - 1.0
21/04:00am 16.6 17.2 13.1 80 2.0 NNW 2 7 1 4 - - 1.0
21/03:30am 17.0 16.8 13.5 80 2.0 NW 7 7 4 4 - - 1.0
21/03:00am 17.6 17.4 13.7 78 2.2 NNW 7 9 4 5 - - 1.0
21/02:30am 17.9 18.0 13.8 77 2.3 NNW 6 9 3 5 - - 1.0
21/02:00am 18.4 17.7 14.3 77 2.4 NNW 11 13 6 7 - - 1.0
21/01:30am 18.0 17.6 14.1 78 2.2 NNW 9 11 5 6 - - 1.0
21/01:00am 17.7 17.4 13.4 76 2.4 NW 7 9 4 5 - - 1.0
21/12:30am 17.8 17.2 13.5 76 2.4 NW 9 11 5 6 - - 1.0
21/12:00am 18.1 18.0 13.8 76 2.4 NW 7 9 4 5 - - 1.0
 
Date/Time
EDT
Temp
°C
App
Temp
°C
Dew
Point
Rel
Hum
%
Delta-T
°C
Wind Press
QNH
hPa
Press
MSL
hPa
Rain
since 9 am
mm
Dir
 
Spd
km/h
Gust
km/h
Spd
kts
Gust
kts
20/11:30pm 17.8 17.5 13.3 75 2.5 W 7 9 4 5 - - 1.0
20/11:00pm 17.8 17.1 13.1 74 2.6 WNW 9 9 5 5 - - 1.0
20/10:30pm 17.9 18.8 13.0 73 2.7 CALM 0 6 0 3 - - 1.0
20/10:00pm 18.1 18.2 12.8 71 3.0 WNW 4 7 2 4 - - 1.0
20/09:30pm 18.7 18.3 13.1 70 3.2 NW 7 9 4 5 - - 1.0
20/09:00pm 19.2 17.9 13.6 70 3.2 NE 13 17 7 9 - - 1.0
20/08:30pm 19.2 17.4 13.4 69 3.3 NNE 15 19 8 10 - - 1.0
20/08:00pm 19.3 17.5 13.2 68 3.5 NE 15 20 8 11 - - 1.0
20/07:30pm 19.6 17.4 13.3 67 3.6 NE 17 20 9 11 - - 1.0
20/07:00pm 20.0 17.8 13.2 65 3.9 NE 17 20 9 11 - - 1.0
20/06:30pm 20.2 17.9 12.9 63 4.1 NE 17 20 9 11 - - 1.0
20/06:00pm 20.5 18.2 13.0 62 4.3 ENE 17 19 9 10 - - 1.0
20/05:30pm 21.0 18.8 13.2 61 4.5 NE 17 20 9 11 - - 1.0
20/05:00pm 20.9 18.5 12.8 60 4.6 ENE 17 22 9 12 - - 1.0
20/04:30pm 21.2 18.6 13.1 60 4.6 ENE 19 22 10 12 - - 1.0
20/04:00pm 21.2 18.4 12.6 58 4.9 ENE 19 22 10 12 - - 1.0
20/03:30pm 21.4 19.5 13.1 59 4.7 ENE 15 19 8 10 - - 1.0
20/03:00pm 21.0 18.9 12.4 58 4.8 ENE 15 22 8 12 - - 1.0
20/02:30pm 21.3 19.6 13.5 61 4.5 ENE 15 19 8 10 - - 1.0
20/02:00pm 21.0 19.2 13.2 61 4.5 ENE 15 19 8 10 - - 1.0
20/01:30pm 21.2 20.0 13.9 63 4.2 ENE 13 19 7 10 - - 1.0
20/01:00pm 20.6 19.1 13.1 62 4.3 ENE 13 17 7 9 - - 1.0
20/12:30pm 20.7 19.2 14.1 66 3.8 E 15 17 8 9 - - 1.0
20/12:00pm 20.6 19.3 13.6 64 4.0 ENE 13 17 7 9 - - 0.0
20/11:30am 20.6 19.8 14.0 66 3.8 ENE 11 15 6 8 - - 0.0
20/11:00am 20.2 19.8 14.1 68 3.5 E 9 13 5 7 - - 0.0
20/10:30am 19.6 19.6 14.2 71 3.1 ESE 7 9 4 5 - - 0.0
20/10:00am 19.1 18.7 13.1 68 3.4 SE 7 9 4 5 - - 0.0
20/09:30am 19.0 18.1 12.7 67 3.5 SE 9 11 5 6 - - 0.0
20/09:00am 19.1 18.1 12.4 65 3.7 SSE 9 13 5 7 - - 1.2
20/08:30am 19.1 18.7 13.1 68 3.4 S 7 9 4 5 - - 1.2
20/08:00am 18.2 17.7 12.6 70 3.1 SSW 7 9 4 5 - - 1.2
20/07:30am 17.3 16.7 12.4 73 2.7 SW 7 11 4 6 - - 1.2
20/07:00am 16.6 16.1 12.8 78 2.1 WSW 7 9 4 5 - - 1.2
20/06:30am 15.9 14.9 12.3 79 2.0 SW 9 13 5 7 - - 1.2
20/06:00am 16.1 14.8 12.5 79 2.0 WSW 11 13 6 7 - - 1.2
20/05:30am 16.1 15.2 12.5 79 2.0 WSW 9 11 5 6 - - 1.2
20/05:00am 16.2 15.3 12.6 79 2.0 W 9 9 5 5 - - 1.2
20/04:30am 16.4 16.5 12.8 79 2.0 W 4 7 2 4 - - 1.2
20/04:00am 16.3 15.5 12.8 80 1.9 WSW 9 11 5 6 - - 1.2
20/03:30am 16.9 16.2 12.0 73 2.7 SSE 7 11 4 6 - - 1.2
20/03:00am 16.9 14.8 12.4 75 2.5 S 15 17 8 9 - - 1.2
20/02:30am 16.9 14.0 12.8 77 2.3 S 20 24 11 13 - - 1.2
20/02:00am 16.6 14.7 13.1 80 2.0 SSW 15 22 8 12 - - 1.2
20/01:30am 16.5 16.1 12.5 77 2.2 WNW 6 15 3 8 - - 1.2
20/01:00am 16.6 14.0 11.9 74 2.6 SW 17 24 9 13 - - 1.0
20/12:30am 17.9 15.0 12.4 70 3.1 SSE 19 22 10 12 - - 0.0
20/12:00am 17.9 15.5 12.8 72 2.8 SSE 17 22 9 12 - - 0.0
 
Date/Time
EDT
Temp
°C
App
Temp
°C
Dew
Point
Rel
Hum
%
Delta-T
°C
Wind Press
QNH
hPa
Press
MSL
hPa
Rain
since 9 am
mm
Dir
 
Spd
km/h
Gust
km/h
Spd
kts
Gust
kts
19/11:30pm 17.3 14.7 12.0 71 2.9 SSE 17 26 9 14 - - 0.0
19/11:00pm 18.5 15.1 11.1 62 4.0 S 20 24 11 13 - - 0.0
19/10:30pm 18.5 15.2 11.6 64 3.8 SSE 20 28 11 15 - - 0.0
19/10:00pm 18.7 15.6 11.5 63 3.9 SSE 19 30 10 16 - - 0.0
19/09:30pm 18.3 15.0 11.6 65 3.7 ESE 20 26 11 14 - - 0.0
19/09:00pm 18.7 15.3 11.3 62 4.0 SSE 20 28 11 15 - - 0.0
19/08:30pm 18.7 15.0 11.5 63 3.9 SSE 22 28 12 15 - - 0.0
19/08:00pm 18.8 14.8 11.9 64 3.8 SSE 24 28 13 15 - - 0.0
19/07:30pm 18.8 14.8 10.4 58 4.5 SSE 22 28 12 15 - - 0.0

Other Formats:

Comma delimited format used in spreadsheet applications
http://www.bom.gov.au/fwo/IDN60801/IDN60801.94749.axf

JavaScript Object Notation format (JSON) in row-major order
http://www.bom.gov.au/fwo/IDN60801/IDN60801.94749.json